Terminal Aerodrome Forecast
Issued by NWS Sioux Falls, SD

Home | Current Version | Previous Version | Text Only | Print | Product List | Glossary Off
Versions: 1 2 3 4 5 6 7 8 9 10 11 12 13 14 15 16 17 18 19 20 21 22 23 24 25 26

215
FTUS43 KFSD 052320
TAFSUX
TAF
KSUX 052320Z 0600/0624 25011G17KT P6SM BKN080
     FM060100 28014G22KT P6SM BKN050
     FM060300 31016G26KT P6SM SCT025 BKN130
     FM060500 31017G27KT P6SM SCT130
     FM061800 30021G31KT P6SM SKC=

USA.gov is the U.S. government's official web portal to all federal, state and local government web resources and services.